createdAt,value
2023-01-13T00:00:09.206Z,98718.11
2023-01-13T00:03:36.143Z,98714.73
2023-01-13T00:06:38.869Z,98710.81
2023-01-13T00:09:41.640Z,98702.40
2023-01-13T00:12:44.624Z,98698.95
2023-01-13T00:15:59.235Z,98695.59
2023-01-13T00:19:02.110Z,98698.02
2023-01-13T00:22:04.981Z,98702.53
2023-01-13T00:25:08.348Z,98701.59
2023-01-13T00:28:11.098Z,98700.14
2023-01-13T00:31:20.481Z,98694.24
2023-01-13T00:34:24.734Z,98688.73
2023-01-13T00:37:27.678Z,98684.71
2023-01-13T00:40:30.418Z,98684.06
2023-01-13T00:43:35.448Z,98686.77
2023-01-13T00:46:38.262Z,98680.77
2023-01-13T00:49:40.988Z,98676.70
2023-01-13T00:52:43.673Z,98673.41
2023-01-13T00:55:46.403Z,98672.73
2023-01-13T00:58:49.268Z,98669.81
2023-01-13T01:01:52.169Z,98667.60
2023-01-13T01:04:55.071Z,98667.83
2023-01-13T01:07:57.791Z,98660.52
2023-01-13T01:11:16.055Z,98663.52
2023-01-13T01:14:18.807Z,98659.66
2023-01-13T01:17:21.543Z,98654.48
2023-01-13T01:20:24.278Z,98651.09
2023-01-13T01:23:31.456Z,98647.42
2023-01-13T01:26:34.260Z,98645.45
2023-01-13T01:29:36.994Z,98643.33
2023-01-13T01:32:39.777Z,98639.44
2023-01-13T01:35:42.961Z,98634.37
2023-01-13T01:38:46.376Z,98630.64
2023-01-13T01:42:07.694Z,98629.48
2023-01-13T01:45:25.373Z,98628.04
2023-01-13T01:48:32.644Z,98628.46
2023-01-13T01:51:43.696Z,98630.79
2023-01-13T01:54:52.346Z,98625.64
2023-01-13T01:58:09.726Z,98623.78
2023-01-13T02:01:13.509Z,98612.63
2023-01-13T02:04:23.213Z,98613.38
2023-01-13T02:07:32.528Z,98609.68
2023-01-13T02:10:36.676Z,98609.68
2023-01-13T02:13:39.441Z,98606.34
2023-01-13T02:16:52.456Z,98613.95
2023-01-13T02:20:08.495Z,98612.70
2023-01-13T02:24:02.905Z,98611.49
2023-01-13T02:27:19.717Z,98612.19
2023-01-13T02:31:03.384Z,98610.91
2023-01-13T02:34:30.000Z,98605.30
2023-01-13T02:37:40.004Z,98598.01
2023-01-13T02:41:31.613Z,98592.42
2023-01-13T02:44:42.537Z,98591.44
2023-01-13T02:47:50.212Z,98591.09
2023-01-13T02:51:01.399Z,98589.38
2023-01-13T02:54:09.431Z,98589.79
2023-01-13T02:57:14.825Z,98585.05
2023-01-13T03:00:19.694Z,98585.02
2023-01-13T03:03:22.459Z,98580.48
2023-01-13T03:06:43.883Z,98581.36
2023-01-13T03:09:59.458Z,98576.49
2023-01-13T03:13:36.461Z,98578.62
2023-01-13T03:16:42.311Z,98576.05
2023-01-13T03:19:59.848Z,98569.32
2023-01-13T03:23:22.751Z,98567.73
2023-01-13T03:26:56.734Z,98567.86
2023-01-13T03:30:07.079Z,98565.24
2023-01-13T03:33:15.936Z,98563.48
2023-01-13T03:36:26.661Z,98561.42
2023-01-13T03:39:34.881Z,98565.08
2023-01-13T03:42:40.783Z,98561.84
2023-01-13T03:45:47.748Z,98559.65
2023-01-13T03:48:58.144Z,98562.25
2023-01-13T03:52:05.145Z,98560.96
2023-01-13T03:55:13.832Z,98557.17
2023-01-13T03:58:38.093Z,98555.16
2023-01-13T04:01:57.453Z,98553.63
2023-01-13T04:05:03.319Z,98552.30
2023-01-13T04:08:18.618Z,98556.45
2023-01-13T04:11:52.169Z,98551.61
2023-01-13T04:14:57.413Z,98548.77
2023-01-13T04:18:22.051Z,98540.17
2023-01-13T04:21:24.963Z,98539.98
2023-01-13T04:24:28.023Z,98539.33
2023-01-13T04:27:30.894Z,98540.98
2023-01-13T04:30:34.147Z,98540.29
2023-01-13T04:33:37.145Z,98541.91
2023-01-13T04:36:41.337Z,98538.20
2023-01-13T04:39:46.717Z,98541.95
2023-01-13T04:42:49.912Z,98545.23
2023-01-13T04:45:52.840Z,98544.80
2023-01-13T04:48:55.697Z,98539.79
2023-01-13T04:51:58.630Z,98541.22
2023-01-13T04:55:02.436Z,98540.58
2023-01-13T04:58:10.253Z,98541.38
2023-01-13T05:01:13.086Z,98545.06
2023-01-13T05:04:17.090Z,98548.63
2023-01-13T05:07:19.887Z,98551.27
2023-01-13T05:10:24.127Z,98548.70
2023-01-13T05:13:45.569Z,98551.80
2023-01-13T05:17:00.941Z,98552.83
2023-01-13T05:20:05.666Z,98553.67
2023-01-13T05:23:26.776Z,98558.06
2023-01-13T05:26:29.523Z,98552.61
2023-01-13T05:29:32.291Z,98560.38
2023-01-13T05:32:35.156Z,98559.40
2023-01-13T05:35:40.054Z,98557.31
2023-01-13T05:38:42.759Z,98559.06
2023-01-13T05:42:03.937Z,98557.54
2023-01-13T05:45:07.320Z,98556.29
2023-01-13T05:48:10.163Z,98555.98
2023-01-13T05:51:13.762Z,98557.41
2023-01-13T05:54:16.827Z,98553.05
2023-01-13T05:57:19.668Z,98553.54
2023-01-13T06:00:22.705Z,98557.93
2023-01-13T06:03:25.452Z,98557.05
2023-01-13T06:06:28.155Z,98558.50
2023-01-13T06:09:31.258Z,98563.56
2023-01-13T06:12:34.042Z,98563.08
2023-01-13T06:15:36.985Z,98558.08
2023-01-13T06:18:39.713Z,98559.73
2023-01-13T06:21:45.221Z,98554.41
2023-01-13T06:24:50.519Z,98556.52
2023-01-13T06:27:54.852Z,98556.45
2023-01-13T06:31:00.857Z,98556.38
2023-01-13T06:34:11.127Z,98553.62
2023-01-13T06:37:19.204Z,98551.60
2023-01-13T06:40:22.529Z,98554.52
2023-01-13T06:43:25.603Z,98557.23
2023-01-13T06:46:28.380Z,98559.18
2023-01-13T06:49:31.271Z,98560.27
2023-01-13T06:52:34.137Z,98561.81
2023-01-13T06:55:37.231Z,98559.00
2023-01-13T06:58:39.954Z,98559.84
2023-01-13T07:01:43.570Z,98565.15
2023-01-13T07:04:46.932Z,98560.94
2023-01-13T07:07:49.709Z,98565.85
2023-01-13T07:10:53.210Z,98566.77
2023-01-13T07:14:14.395Z,98560.65
2023-01-13T07:17:25.094Z,98555.30
2023-01-13T07:20:28.942Z,98557.20
2023-01-13T07:23:34.435Z,98559.59
2023-01-13T07:26:38.215Z,98562.15
2023-01-13T07:29:41.516Z,98562.89
2023-01-13T07:32:44.323Z,98563.59
2023-01-13T07:35:48.381Z,98565.92
2023-01-13T07:38:52.754Z,98569.67
2023-01-13T07:42:16.058Z,98566.05
2023-01-13T07:45:19.231Z,98562.92
2023-01-13T07:48:22.018Z,98559.59
2023-01-13T07:51:24.983Z,98564.36
2023-01-13T07:54:39.749Z,98558.65
2023-01-13T07:57:43.636Z,98567.83
2023-01-13T08:00:46.439Z,98571.38
2023-01-13T08:03:49.401Z,98569.41
2023-01-13T08:06:52.116Z,98565.73
2023-01-13T08:09:54.833Z,98563.70
2023-01-13T08:13:16.268Z,98565.27
2023-01-13T08:16:19.118Z,98570.43
2023-01-13T08:19:21.861Z,98571.07
2023-01-13T08:22:24.790Z,98573.81
2023-01-13T08:25:29.617Z,98582.61
2023-01-13T08:28:32.596Z,98579.91
2023-01-13T08:31:35.317Z,98582.71
2023-01-13T08:34:38.132Z,98582.27
2023-01-13T08:37:41.166Z,98579.16
2023-01-13T08:40:43.939Z,98576.69
2023-01-13T08:43:46.762Z,98578.20
2023-01-13T08:46:49.910Z,98577.69
2023-01-13T08:49:52.728Z,98583.51
2023-01-13T08:52:55.490Z,98579.90
2023-01-13T08:55:58.378Z,98582.92
2023-01-13T08:59:01.723Z,98578.34
2023-01-13T09:02:14.130Z,98581.76
2023-01-13T09:05:17.967Z,98579.30
2023-01-13T09:08:20.845Z,98580.07
2023-01-13T09:11:51.047Z,98579.06
2023-01-13T09:14:53.815Z,98581.83
2023-01-13T09:17:56.581Z,98581.48
2023-01-13T09:20:59.398Z,98585.34
2023-01-13T09:24:02.195Z,98578.13
2023-01-13T09:27:05.043Z,98576.63
2023-01-13T09:30:08.977Z,98578.65
2023-01-13T09:33:30.402Z,98572.64
2023-01-13T09:36:33.138Z,98571.21
2023-01-13T09:39:36.532Z,98568.55
2023-01-13T09:43:12.570Z,98568.13
2023-01-13T09:46:41.824Z,98563.12
2023-01-13T09:49:45.041Z,98565.55
2023-01-13T09:52:48.183Z,98564.55
2023-01-13T09:55:51.419Z,98560.42
2023-01-13T09:58:54.417Z,98559.16
2023-01-13T10:02:04.851Z,98559.41
2023-01-13T10:05:42.483Z,98559.00
2023-01-13T10:08:48.572Z,98560.22
2023-01-13T10:12:14.755Z,98560.73
2023-01-13T10:15:21.501Z,98556.45
2023-01-13T10:18:28.369Z,98552.53
2023-01-13T10:21:52.616Z,98547.34
2023-01-13T10:25:18.349Z,98542.02
2023-01-13T10:28:23.974Z,98543.98
2023-01-13T10:31:26.894Z,98544.48
2023-01-13T10:34:30.475Z,98540.11
2023-01-13T10:37:33.431Z,98538.05
2023-01-13T10:40:46.793Z,98537.92
2023-01-13T10:43:52.582Z,98535.40
2023-01-13T10:46:58.124Z,98535.91
2023-01-13T10:50:09.355Z,98533.67
2023-01-13T10:53:23.736Z,98533.73
2023-01-13T10:56:32.679Z,98532.63
2023-01-13T10:59:36.245Z,98531.91
2023-01-13T11:02:39.090Z,98526.45
2023-01-13T11:05:58.142Z,98526.61
2023-01-13T11:09:03.209Z,98522.27
2023-01-13T11:12:30.839Z,98518.41
2023-01-13T11:16:16.594Z,98517.88
2023-01-13T11:19:23.143Z,98518.86
2023-01-13T11:22:33.381Z,98516.16
2023-01-13T11:25:43.213Z,98515.61
2023-01-13T11:29:12.068Z,98511.51
2023-01-13T11:32:20.046Z,98505.52
2023-01-13T11:35:24.311Z,98506.11
2023-01-13T11:39:18.760Z,98506.36
2023-01-13T11:42:38.407Z,98507.78
2023-01-13T11:45:49.908Z,98503.41
2023-01-13T11:48:56.223Z,98502.56
2023-01-13T11:52:34.299Z,98499.58
2023-01-13T11:56:04.496Z,98496.42
2023-01-13T11:59:38.525Z,98497.15
2023-01-13T12:03:12.271Z,98497.69
2023-01-13T12:06:24.458Z,98499.13
2023-01-13T12:09:53.034Z,98499.59
2023-01-13T12:13:11.929Z,98500.19
2023-01-13T12:16:25.710Z,98497.63
2023-01-13T12:19:32.520Z,98494.17
2023-01-13T12:22:37.326Z,98487.63
2023-01-13T12:25:45.533Z,98484.36
2023-01-13T12:29:11.387Z,98487.38
2023-01-13T12:32:25.065Z,98484.98
2023-01-13T12:35:47.796Z,98483.70
2023-01-13T12:38:59.364Z,98481.65
2023-01-13T12:42:36.034Z,98479.84
2023-01-13T12:45:38.864Z,98486.81
2023-01-13T12:48:59.704Z,98487.36
2023-01-13T12:52:15.043Z,98485.89
2023-01-13T12:55:20.996Z,98487.57
2023-01-13T12:58:28.678Z,98486.91
2023-01-13T13:01:36.158Z,98489.55
2023-01-13T13:04:49.597Z,98491.52
2023-01-13T13:08:07.169Z,98492.88
2023-01-13T13:11:33.002Z,98494.98
2023-01-13T13:14:42.019Z,98491.23
2023-01-13T13:18:00.303Z,98493.30
2023-01-13T13:21:09.196Z,98493.14
2023-01-13T13:24:12.064Z,98494.20
2023-01-13T13:27:32.474Z,98493.85
2023-01-13T13:30:39.377Z,98492.98
2023-01-13T13:33:52.601Z,98494.09
2023-01-13T13:37:22.290Z,98492.16
2023-01-13T13:40:50.542Z,98488.96
2023-01-13T13:44:12.356Z,98488.02
2023-01-13T13:47:15.319Z,98491.01
2023-01-13T13:50:20.959Z,98494.77
2023-01-13T13:53:27.469Z,98497.40
2023-01-13T13:56:36.793Z,98502.05
2023-01-13T13:59:39.879Z,98499.39
2023-01-13T14:02:50.958Z,98499.83
2023-01-13T14:06:00.942Z,98495.64
2023-01-13T14:09:04.451Z,98503.01
2023-01-13T14:12:18.872Z,98501.42
2023-01-13T14:15:31.526Z,98497.86
2023-01-13T14:18:49.621Z,98500.71
2023-01-13T14:21:53.799Z,98509.26
2023-01-13T14:24:58.052Z,98513.76
2023-01-13T14:28:14.146Z,98516.23
2023-01-13T14:31:17.156Z,98517.86
2023-01-13T14:34:32.016Z,98521.55
2023-01-13T14:37:35.798Z,98526.17
2023-01-13T14:40:45.713Z,98519.41
2023-01-13T14:43:50.918Z,98518.96
2023-01-13T14:46:56.595Z,98520.19
2023-01-13T14:50:03.270Z,98521.02
2023-01-13T14:53:39.701Z,98523.52
2023-01-13T14:57:25.285Z,98519.30
2023-01-13T15:00:28.121Z,98519.61
2023-01-13T15:03:42.163Z,98522.38
2023-01-13T15:06:51.530Z,98526.00
2023-01-13T15:09:58.292Z,98527.20
2023-01-13T15:13:04.259Z,98522.88
2023-01-13T15:16:15.291Z,98526.70
2023-01-13T15:19:18.053Z,98527.54
2023-01-13T15:22:21.002Z,98529.84
2023-01-13T15:25:24.477Z,98530.29
2023-01-13T15:28:28.895Z,98533.81
2023-01-13T15:31:33.251Z,98532.04
2023-01-13T15:34:36.055Z,98532.30
2023-01-13T15:37:38.846Z,98533.95
2023-01-13T15:40:42.534Z,98532.89
2023-01-13T15:44:04.367Z,98532.59
2023-01-13T15:47:09.552Z,98540.56
2023-01-13T15:50:16.883Z,98541.50
2023-01-13T15:53:20.198Z,98549.48
2023-01-13T15:56:25.585Z,98541.05
2023-01-13T15:59:28.388Z,98544.30
2023-01-13T16:02:31.352Z,98546.28
2023-01-13T16:05:34.193Z,98542.52
2023-01-13T16:08:37.014Z,98546.30
2023-01-13T16:11:39.771Z,98550.34
2023-01-13T16:14:43.011Z,98550.04
2023-01-13T16:17:46.635Z,98550.16
2023-01-13T16:20:52.926Z,98548.30
2023-01-13T16:23:55.648Z,98553.77
2023-01-13T16:26:58.499Z,98557.33
2023-01-13T16:30:01.241Z,98559.67
2023-01-13T16:33:04.139Z,98558.55
2023-01-13T16:36:14.553Z,98558.21
2023-01-13T16:39:21.609Z,98565.55
2023-01-13T16:42:24.930Z,98572.55
2023-01-13T16:45:28.225Z,98575.65
2023-01-13T16:48:31.081Z,98572.38
2023-01-13T16:51:33.986Z,98575.10
2023-01-13T16:54:37.225Z,98579.30
2023-01-13T16:57:40.091Z,98578.34
2023-01-13T17:00:43.303Z,98579.14
2023-01-13T17:03:49.228Z,98590.04
2023-01-13T17:07:00.240Z,98584.02
2023-01-13T17:10:03.552Z,98584.75
2023-01-13T17:13:15.608Z,98585.06
2023-01-13T17:16:22.288Z,98587.58
2023-01-13T17:19:26.102Z,98590.29
2023-01-13T17:22:30.793Z,98589.53
2023-01-13T17:25:33.548Z,98591.53
2023-01-13T17:28:36.298Z,98588.52
2023-01-13T17:31:39.840Z,98591.44
2023-01-13T17:34:44.919Z,98591.51
2023-01-13T17:37:47.702Z,98591.83
2023-01-13T17:40:50.477Z,98595.94
2023-01-13T17:43:53.957Z,98594.09
2023-01-13T17:46:56.935Z,98590.00
2023-01-13T17:49:59.743Z,98592.56
2023-01-13T17:53:02.497Z,98590.14
2023-01-13T17:56:05.922Z,98596.41
2023-01-13T17:59:11.265Z,98594.48
2023-01-13T18:02:14.683Z,98592.81
2023-01-13T18:05:17.690Z,98599.79
2023-01-13T18:08:21.623Z,98602.58
2023-01-13T18:11:25.057Z,98603.24
2023-01-13T18:14:28.256Z,98601.14
2023-01-13T18:17:31.041Z,98602.97
2023-01-13T18:20:52.536Z,98602.38
2023-01-13T18:24:13.680Z,98608.21
2023-01-13T18:27:24.317Z,98605.45
2023-01-13T18:30:27.048Z,98608.95
2023-01-13T18:33:29.821Z,98610.64
2023-01-13T18:36:32.616Z,98616.64
2023-01-13T18:39:38.552Z,98618.95
2023-01-13T18:42:54.807Z,98622.77
2023-01-13T18:45:57.931Z,98625.02
2023-01-13T18:49:00.786Z,98622.86
2023-01-13T18:52:03.692Z,98626.09
2023-01-13T18:55:06.516Z,98629.73
2023-01-13T18:58:09.263Z,98632.56
2023-01-13T19:01:12.083Z,98639.54
2023-01-13T19:04:17.126Z,98646.56
2023-01-13T19:07:24.391Z,98644.40
2023-01-13T19:10:31.872Z,98640.15
2023-01-13T19:13:36.304Z,98646.14
2023-01-13T19:16:39.379Z,98650.95
2023-01-13T19:19:45.286Z,98652.66
2023-01-13T19:22:53.915Z,98651.52
2023-01-13T19:26:05.565Z,98656.60
2023-01-13T19:29:09.207Z,98659.72
2023-01-13T19:32:12.409Z,98661.30
2023-01-13T19:35:18.133Z,98662.86
2023-01-13T19:38:24.566Z,98662.14
2023-01-13T19:41:46.401Z,98663.73
2023-01-13T19:45:07.704Z,98669.59
2023-01-13T19:48:10.930Z,98669.29
2023-01-13T19:51:14.682Z,98667.95
2023-01-13T19:54:17.658Z,98666.02
2023-01-13T19:57:20.939Z,98672.24
2023-01-13T20:00:23.996Z,98670.55
2023-01-13T20:03:31.122Z,98678.98
2023-01-13T20:06:33.961Z,98689.69
2023-01-13T20:09:36.813Z,98693.89
2023-01-13T20:12:39.636Z,98699.63
2023-01-13T20:15:43.457Z,98708.31
2023-01-13T20:18:50.359Z,98711.94
2023-01-13T20:21:53.107Z,98702.80
2023-01-13T20:24:55.989Z,98714.96
2023-01-13T20:28:00.461Z,98719.94
2023-01-13T20:31:11.758Z,98726.77
2023-01-13T20:34:18.206Z,98731.30
2023-01-13T20:37:21.065Z,98738.81
2023-01-13T20:40:24.398Z,98745.25
2023-01-13T20:43:27.846Z,98747.98
2023-01-13T20:46:30.619Z,98752.44
2023-01-13T20:49:36.958Z,98760.30
2023-01-13T20:52:40.040Z,98761.08
2023-01-13T20:55:42.799Z,98763.88
2023-01-13T20:58:45.617Z,98761.23
2023-01-13T21:01:48.655Z,98764.60
2023-01-13T21:04:51.780Z,98767.38
2023-01-13T21:07:54.713Z,98761.89
2023-01-13T21:11:08.255Z,98763.21
2023-01-13T21:14:33.937Z,98762.10
2023-01-13T21:17:55.428Z,98764.56
2023-01-13T21:21:13.621Z,98769.09
2023-01-13T21:24:16.387Z,98764.52
2023-01-13T21:27:19.579Z,98769.43
2023-01-13T21:30:22.711Z,98771.23
2023-01-13T21:33:25.507Z,98772.15
2023-01-13T21:36:28.816Z,98775.15
2023-01-13T21:39:31.619Z,98775.96
2023-01-13T21:42:53.001Z,98774.63
2023-01-13T21:46:14.609Z,98781.25
2023-01-13T21:49:17.395Z,98782.52
2023-01-13T21:52:20.342Z,98789.19
2023-01-13T21:55:28.878Z,98788.45
2023-01-13T21:58:31.803Z,98787.50
2023-01-13T22:01:34.668Z,98788.13
2023-01-13T22:04:37.605Z,98793.70
2023-01-13T22:07:41.101Z,98797.27
2023-01-13T22:10:59.476Z,98794.94
2023-01-13T22:14:11.109Z,98799.25
2023-01-13T22:17:15.090Z,98800.27
2023-01-13T22:20:21.513Z,98796.08
2023-01-13T22:23:24.545Z,98801.69
2023-01-13T22:26:27.496Z,98803.66
2023-01-13T22:29:30.215Z,98802.17
2023-01-13T22:32:37.094Z,98804.61
2023-01-13T22:35:39.941Z,98805.98
2023-01-13T22:38:42.766Z,98805.17
2023-01-13T22:41:45.692Z,98811.98
2023-01-13T22:44:48.482Z,98809.21
2023-01-13T22:47:53.263Z,98818.16
2023-01-13T22:50:56.512Z,98820.77
2023-01-13T22:53:59.285Z,98822.02
2023-01-13T22:57:01.989Z,98822.01
2023-01-13T23:00:05.720Z,98831.98
2023-01-13T23:03:08.491Z,98828.84
2023-01-13T23:06:11.400Z,98828.36
2023-01-13T23:09:14.206Z,98830.48
2023-01-13T23:12:17.048Z,98836.96
2023-01-13T23:15:20.539Z,98838.44
2023-01-13T23:18:25.829Z,98842.48
2023-01-13T23:21:34.533Z,98844.33
2023-01-13T23:24:37.305Z,98842.44
2023-01-13T23:27:40.342Z,98848.25
2023-01-13T23:30:43.074Z,98847.55
2023-01-13T23:33:46.523Z,98852.12
2023-01-13T23:36:49.377Z,98851.62
2023-01-13T23:39:52.114Z,98848.36
2023-01-13T23:42:54.937Z,98846.52
2023-01-13T23:46:02.457Z,98850.48
2023-01-13T23:49:05.291Z,98850.86
2023-01-13T23:52:08.061Z,98854.61
2023-01-13T23:55:10.790Z,98854.40
2023-01-13T23:58:14.502Z,98855.05
